Time;durP1;ratioP1;P1;durP2;ratioP2;P2;SDS_P1;SDS_P2;PMS_P1;PMS_P2;Temp;Humidity;BMP_temperature;BMP_pressure;BME280_temperature;BME280_humidity;BME280_pressure;Samples;Min_cycle;Max_cycle;Signal;HPM_P1;HPM_P2
2023/01/10 00:01:40;;;;;;;75.82;69.72;;;;;;;;;;9987886;29;20070;-69
2023/01/10 00:06:36;;;;;;;75.03;69.38;;;;;;;;;;9992090;29;20063;-69
2023/01/10 00:16:47;;;;;;;73.50;67.43;;;;;;;;;;9993287;29;20051;-70
2023/01/10 00:21:43;;;;;;;68.65;63.08;;;;;;;;;;9991744;29;20135;-69
2023/01/10 00:26:40;;;;;;;68.80;62.72;;;;;;;;;;9997774;29;20422;-69
2023/01/10 00:31:39;;;;;;;69.82;64.25;;;;;;;;;;9997726;29;20134;-69
2023/01/10 00:36:35;;;;;;;66.97;61.42;;;;;;;;;;9992698;29;20139;-69
2023/01/10 00:46:47;;;;;;;65.95;60.97;;;;;;;;;;9994168;29;20059;-70
2023/01/10 00:51:44;;;;;;;68.13;62.33;;;;;;;;;;9996999;29;20055;-70
2023/01/10 00:56:40;;;;;;;67.53;62.17;;;;;;;;;;9991759;29;20076;-70
2023/01/10 01:01:36;;;;;;;69.95;63.97;;;;;;;;;;9991422;29;20536;-70
2023/01/10 01:06:33;;;;;;;71.55;62.13;;;;;;;;;;9988471;29;20052;-70
2023/01/10 01:11:29;;;;;;;62.15;57.00;;;;;;;;;;9986527;29;20083;-69
2023/01/10 01:16:25;;;;;;;60.17;55.13;;;;;;;;;;9988191;29;20090;-69
2023/01/10 01:21:26;;;;;;;56.00;51.50;;;;;;;;;;9994179;29;20489;-69
2023/01/10 01:26:23;;;;;;;56.45;51.65;;;;;;;;;;9993662;29;20056;-70
2023/01/10 01:31:19;;;;;;;53.05;48.88;;;;;;;;;;9989951;29;20076;-69
2023/01/10 01:36:16;;;;;;;57.92;52.67;;;;;;;;;;9991028;29;20214;-70
2023/01/10 01:46:28;;;;;;;59.75;54.72;;;;;;;;;;9981156;29;20060;-70
2023/01/10 01:51:27;;;;;;;63.90;59.42;;;;;;;;;;9984743;29;20056;-69
2023/01/10 01:56:31;;;;;;;65.07;58.95;;;;;;;;;;9986223;29;20052;-69
2023/01/10 02:01:29;;;;;;;61.63;56.42;;;;;;;;;;9983258;29;20048;-69
2023/01/10 02:06:25;;;;;;;55.10;50.53;;;;;;;;;;9972559;29;20106;-71
2023/01/10 02:11:22;;;;;;;55.00;50.67;;;;;;;;;;9983052;29;20854;-70
2023/01/10 02:16:19;;;;;;;56.40;52.08;;;;;;;;;;9985172;29;20044;-70
2023/01/10 02:21:15;;;;;;;64.80;58.17;;;;;;;;;;9981301;29;20064;-70
2023/01/10 02:26:14;;;;;;;51.75;48.25;;;;;;;;;;9986348;29;20095;-70
2023/01/10 02:31:11;;;;;;;57.05;52.92;;;;;;;;;;9983760;29;20044;-70
2023/01/10 02:36:07;;;;;;;57.70;52.40;;;;;;;;;;9978800;29;20084;-70
2023/01/10 02:41:18;;;;;;;55.70;51.35;;;;;;;;;;9982269;29;20044;-70
2023/01/10 02:46:23;;;;;;;53.25;48.90;;;;;;;;;;9988687;29;20227;-70
2023/01/10 02:51:21;;;;;;;52.78;48.55;;;;;;;;;;9986029;29;20052;-70
2023/01/10 02:56:17;;;;;;;53.42;49.40;;;;;;;;;;9990343;29;20570;-70
2023/01/10 03:01:20;;;;;;;51.28;47.53;;;;;;;;;;9984475;29;20052;-70
2023/01/10 03:06:35;;;;;;;49.67;45.97;;;;;;;;;;9981851;29;20802;-70
2023/01/10 03:11:39;;;;;;;52.40;48.67;;;;;;;;;;9983974;29;20060;-69
2023/01/10 03:16:36;;;;;;;51.63;48.20;;;;;;;;;;9985957;29;20084;-70
2023/01/10 03:21:33;;;;;;;50.60;46.60;;;;;;;;;;9989276;29;20574;-69
2023/01/10 03:26:31;;;;;;;51.17;46.50;;;;;;;;;;9982060;29;20048;-70
2023/01/10 03:31:30;;;;;;;49.92;45.88;;;;;;;;;;9988604;29;20051;-70
2023/01/10 03:36:34;;;;;;;47.72;43.83;;;;;;;;;;9988967;29;20051;-69
2023/01/10 03:41:36;;;;;;;49.75;45.72;;;;;;;;;;9989659;29;20131;-69
2023/01/10 03:46:39;;;;;;;52.30;48.58;;;;;;;;;;9993378;29;20071;-69
2023/01/10 03:51:36;;;;;;;52.78;47.67;;;;;;;;;;9980951;29;20163;-69
2023/01/10 03:56:43;;;;;;;49.53;45.85;;;;;;;;;;9998263;29;20586;-70
2023/01/10 04:01:39;;;;;;;54.42;50.15;;;;;;;;;;9993273;29;20650;-69
2023/01/10 04:06:35;;;;;;;56.00;51.83;;;;;;;;;;9996387;29;20075;-69
2023/01/10 04:11:32;;;;;;;58.53;54.10;;;;;;;;;;9991392;29;20096;-69
2023/01/10 04:16:28;;;;;;;57.60;53.38;;;;;;;;;;9990160;29;20168;-69
2023/01/10 04:21:25;;;;;;;63.20;58.03;;;;;;;;;;9993738;29;20102;-69
2023/01/10 04:26:21;;;;;;;61.15;56.22;;;;;;;;;;9991579;29;20054;-70
2023/01/10 04:31:17;;;;;;;61.10;56.35;;;;;;;;;;9982507;29;20076;-71
2023/01/10 04:36:14;;;;;;;62.72;58.03;;;;;;;;;;9984783;29;20052;-70
2023/01/10 04:41:10;;;;;;;65.85;60.63;;;;;;;;;;9986180;29;20051;-70
2023/01/10 04:46:06;;;;;;;65.38;60.50;;;;;;;;;;9982055;29;20055;-70
2023/01/10 04:51:03;;;;;;;63.72;59.22;;;;;;;;;;9977930;29;20032;-70
2023/01/10 04:56:03;;;;;;;63.05;57.75;;;;;;;;;;9992916;29;20086;-70
2023/01/10 05:01:05;;;;;;;63.10;57.72;;;;;;;;;;9977563;29;20083;-71
2023/01/10 05:06:02;;;;;;;63.47;58.90;;;;;;;;;;9977701;29;20056;-71
2023/01/10 05:10:58;;;;;;;62.10;57.72;;;;;;;;;;9978868;29;20108;-71
2023/01/10 05:15:55;;;;;;;59.47;55.25;;;;;;;;;;9986370;29;20503;-71
2023/01/10 05:20:51;;;;;;;60.85;56.33;;;;;;;;;;9987130;29;20058;-72
2023/01/10 05:25:48;;;;;;;53.95;49.83;;;;;;;;;;9984970;29;20056;-72
2023/01/10 05:30:44;;;;;;;55.65;50.92;;;;;;;;;;9990287;29;20048;-72
2023/01/10 05:35:41;;;;;;;53.40;49.40;;;;;;;;;;9975725;29;20541;-72
2023/01/10 05:40:37;;;;;;;55.92;51.28;;;;;;;;;;9992128;29;20051;-72
2023/01/10 05:45:33;;;;;;;51.97;47.83;;;;;;;;;;9982936;29;20051;-73
2023/01/10 05:50:30;;;;;;;53.30;49.42;;;;;;;;;;9991440;29;20055;-72
2023/01/10 05:55:26;;;;;;;53.80;49.35;;;;;;;;;;9980770;29;20067;-72
2023/01/10 06:00:24;;;;;;;49.78;45.95;;;;;;;;;;9975947;29;20091;-72
2023/01/10 06:05:20;;;;;;;50.75;46.67;;;;;;;;;;9979354;29;20553;-71
2023/01/10 06:10:17;;;;;;;51.17;46.38;;;;;;;;;;9981030;29;20518;-72
2023/01/10 06:15:13;;;;;;;52.30;48.33;;;;;;;;;;9982062;29;20108;-72
2023/01/10 06:20:10;;;;;;;54.35;50.25;;;;;;;;;;9977226;29;20083;-72
2023/01/10 06:25:08;;;;;;;55.70;51.45;;;;;;;;;;9982251;29;20052;-71
2023/01/10 06:30:04;;;;;;;56.53;52.13;;;;;;;;;;9982690;29;20443;-72
2023/01/10 06:35:01;;;;;;;58.50;54.17;;;;;;;;;;9975113;29;20067;-71
2023/01/10 06:39:57;;;;;;;62.15;57.00;;;;;;;;;;9987566;29;20422;-70
2023/01/10 06:44:53;;;;;;;61.28;56.55;;;;;;;;;;9982085;29;20128;-70
2023/01/10 06:49:49;;;;;;;60.65;55.95;;;;;;;;;;9987960;29;20048;-71
2023/01/10 06:54:46;;;;;;;61.95;57.00;;;;;;;;;;9990697;29;20087;-70
2023/01/10 06:59:42;;;;;;;62.40;57.05;;;;;;;;;;9986684;29;20441;-71
2023/01/10 07:04:38;;;;;;;59.65;55.28;;;;;;;;;;9986174;29;20044;-70
2023/01/10 07:09:34;;;;;;;58.92;54.42;;;;;;;;;;9969642;29;20082;-70
2023/01/10 07:14:31;;;;;;;59.47;54.40;;;;;;;;;;9990703;29;20073;-70
2023/01/10 07:19:27;;;;;;;64.22;58.35;;;;;;;;;;9988307;29;20084;-70
2023/01/10 07:24:24;;;;;;;58.72;54.15;;;;;;;;;;9990006;29;20466;-70
2023/01/10 07:29:20;;;;;;;61.50;56.45;;;;;;;;;;9988998;29;20139;-70
2023/01/10 07:34:16;;;;;;;57.88;53.70;;;;;;;;;;9986686;29;20048;-70
2023/01/10 07:39:13;;;;;;;58.20;52.85;;;;;;;;;;9991269;29;20044;-71
2023/01/10 07:44:09;;;;;;;57.33;52.47;;;;;;;;;;9988713;29;20139;-70
2023/01/10 07:49:05;;;;;;;60.17;55.92;;;;;;;;;;9986715;29;20830;-70
2023/01/10 07:54:02;;;;;;;56.80;52.38;;;;;;;;;;9989163;29;20179;-71
2023/01/10 07:59:00;;;;;;;58.28;53.60;;;;;;;;;;9985833;29;20094;-70
2023/01/10 08:03:57;;;;;;;57.70;52.55;;;;;;;;;;9985537;29;20044;-70
2023/01/10 08:08:53;;;;;;;52.72;48.08;;;;;;;;;;9981078;29;20075;-71
2023/01/10 08:13:49;;;;;;;52.20;47.90;;;;;;;;;;9980709;29;20139;-71
2023/01/10 08:18:46;;;;;;;43.60;39.83;;;;;;;;;;9989475;29;20151;-70
2023/01/10 08:23:43;;;;;;;44.17;40.03;;;;;;;;;;9981489;29;20773;-71
2023/01/10 08:28:39;;;;;;;40.30;36.65;;;;;;;;;;9981249;29;20052;-70
2023/01/10 08:33:36;;;;;;;41.97;38.33;;;;;;;;;;9985078;29;20044;-70
2023/01/10 08:38:33;;;;;;;39.47;35.95;;;;;;;;;;9982245;29;20132;-71
2023/01/10 08:43:29;;;;;;;42.00;38.13;;;;;;;;;;9982799;29;20074;-71
2023/01/10 08:48:25;;;;;;;38.90;35.30;;;;;;;;;;9985189;29;20059;-71
2023/01/10 08:53:21;;;;;;;38.42;34.38;;;;;;;;;;9986751;29;20124;-71
2023/01/10 08:58:18;;;;;;;38.97;35.10;;;;;;;;;;9983613;29;20149;-71
2023/01/10 09:03:14;;;;;;;38.25;34.65;;;;;;;;;;9986961;29;20194;-71
2023/01/10 09:08:10;;;;;;;39.90;35.85;;;;;;;;;;9987904;29;20040;-70
2023/01/10 09:13:08;;;;;;;41.10;37.15;;;;;;;;;;9986976;29;20044;-71
2023/01/10 09:18:05;;;;;;;41.05;37.13;;;;;;;;;;9971132;29;20072;-71
2023/01/10 09:23:07;;;;;;;41.15;36.95;;;;;;;;;;9973398;29;20060;-71
2023/01/10 09:28:04;;;;;;;40.75;36.47;;;;;;;;;;9972874;29;20107;-71
2023/01/10 09:33:00;;;;;;;38.08;34.75;;;;;;;;;;9981944;29;20048;-71
2023/01/10 09:37:59;;;;;;;37.60;34.28;;;;;;;;;;9981617;29;20139;-71
2023/01/10 09:43:02;;;;;;;36.20;32.97;;;;;;;;;;9984687;29;20048;-71
2023/01/10 09:47:58;;;;;;;;;;;;;;;;;;9982879;29;20118;-71
2023/01/10 09:53:01;;;;;;;33.65;30.63;;;;;;;;;;9978650;29;19985;-71
2023/01/10 09:57:58;;;;;;;35.03;31.75;;;;;;;;;;9989023;29;20128;-71
2023/01/10 10:02:56;;;;;;;35.38;32.38;;;;;;;;;;9982855;29;20040;-71
2023/01/10 10:07:57;;;;;;;38.03;34.25;;;;;;;;;;9979775;29;20124;-71
2023/01/10 10:13:02;;;;;;;33.33;29.98;;;;;;;;;;9988999;29;20043;-71
2023/01/10 10:18:09;;;;;;;36.15;30.05;;;;;;;;;;9979831;29;20051;-71
2023/01/10 10:23:24;;;;;;;34.25;30.90;;;;;;;;;;9974795;29;20048;-71
2023/01/10 10:28:20;;;;;;;34.03;30.80;;;;;;;;;;9983729;29;20052;-71
2023/01/10 10:33:23;;;;;;;42.83;31.15;;;;;;;;;;9972678;29;20134;-71
2023/01/10 10:38:21;;;;;;;34.67;30.90;;;;;;;;;;9984433;29;20044;-71
2023/01/10 10:43:20;;;;;;;34.70;31.13;;;;;;;;;;9987833;29;20052;-71
2023/01/10 10:48:21;;;;;;;35.72;31.75;;;;;;;;;;9979119;29;20421;-71
2023/01/10 10:53:18;;;;;;;35.20;31.67;;;;;;;;;;9982472;29;20048;-71
2023/01/10 10:58:14;;;;;;;37.58;33.53;;;;;;;;;;9988186;29;20056;-71
2023/01/10 11:03:29;;;;;;;32.67;29.60;;;;;;;;;;9985619;29;20434;-71
2023/01/10 11:08:27;;;;;;;33.17;30.08;;;;;;;;;;9976494;29;20547;-71
2023/01/10 11:13:33;;;;;;;33.78;30.50;;;;;;;;;;9974516;29;20054;-71
2023/01/10 11:18:30;;;;;;;36.53;29.13;;;;;;;;;;9988001;29;20055;-71
2023/01/10 11:23:31;;;;;;;32.45;29.13;;;;;;;;;;9975330;29;20103;-71
2023/01/10 11:28:29;;;;;;;33.20;29.65;;;;;;;;;;9986458;29;21087;-71
2023/01/10 11:33:30;;;;;;;34.47;31.02;;;;;;;;;;9990227;29;20532;-70
2023/01/10 11:38:30;;;;;;;42.80;31.10;;;;;;;;;;9987507;29;20055;-71
2023/01/10 11:43:27;;;;;;;35.35;31.45;;;;;;;;;;9985725;29;20052;-71
2023/01/10 11:48:24;;;;;;;35.55;32.13;;;;;;;;;;9982862;29;20071;-71
2023/01/10 11:53:42;;;;;;;33.92;31.08;;;;;;;;;;9981554;29;20048;-70
2023/01/10 11:58:39;;;;;;;33.47;30.45;;;;;;;;;;9981954;29;20056;-70
2023/01/10 12:03:37;;;;;;;34.50;30.17;;;;;;;;;;9992559;29;20048;-70
2023/01/10 12:08:35;;;;;;;29.35;26.52;;;;;;;;;;9988827;29;20054;-70
2023/01/10 12:13:48;;;;;;;33.58;30.05;;;;;;;;;;9986861;29;20048;-70
2023/01/10 12:18:45;;;;;;;39.72;31.30;;;;;;;;;;9984279;29;20537;-70
2023/01/10 12:23:43;;;;;;;31.27;28.00;;;;;;;;;;9981906;29;20418;-70
2023/01/10 12:28:43;;;;;;;33.35;28.45;;;;;;;;;;9981070;29;20079;-70
2023/01/10 12:33:48;;;;;;;33.53;29.98;;;;;;;;;;9976732;29;20058;-70
2023/01/10 12:39:05;;;;;;;36.72;29.25;;;;;;;;;;9987625;29;20091;-70
2023/01/10 12:44:13;;;;;;;34.63;27.83;;;;;;;;;;9979408;29;20044;-70
2023/01/10 12:49:17;;;;;;;30.45;27.40;;;;;;;;;;9983947;29;20048;-70
2023/01/10 12:54:24;;;;;;;30.90;27.70;;;;;;;;;;9987325;29;20075;-70
2023/01/10 12:59:25;;;;;;;32.20;28.77;;;;;;;;;;9983467;29;20486;-70
2023/01/10 13:04:34;;;;;;;32.72;26.95;;;;;;;;;;9987609;29;20080;-70
2023/01/10 13:09:30;;;;;;;34.60;26.92;;;;;;;;;;9984900;29;20044;-70
2023/01/10 13:14:32;;;;;;;30.42;27.13;;;;;;;;;;9970321;29;20507;-71
2023/01/10 13:19:29;;;;;;;28.85;25.73;;;;;;;;;;9988170;29;20048;-69
2023/01/10 13:24:26;;;;;;;29.42;26.38;;;;;;;;;;9984168;29;20075;-69
2023/01/10 13:29:24;;;;;;;35.42;25.30;;;;;;;;;;9990499;29;20127;-69
2023/01/10 13:34:21;;;;;;;28.13;25.20;;;;;;;;;;9985040;29;20143;-69
2023/01/10 13:39:23;;;;;;;27.10;24.60;;;;;;;;;;9991208;29;20056;-72
2023/01/10 13:44:19;;;;;;;30.75;24.70;;;;;;;;;;9985443;29;20483;-71
2023/01/10 13:49:51;;;;;;;25.50;22.73;;;;;;;;;;9985825;29;20076;-69
2023/01/10 13:54:57;;;;;;;26.10;23.33;;;;;;;;;;9924650;29;20060;-71
2023/01/10 14:05:16;;;;;;;28.60;20.70;;;;;;;;;;9988208;29;20135;-71
2023/01/10 14:10:19;;;;;;;32.35;23.25;;;;;;;;;;9985295;29;20150;-72
2023/01/10 14:15:20;;;;;;;23.60;20.95;;;;;;;;;;9980370;29;20048;-69
2023/01/10 14:20:19;;;;;;;29.75;23.52;;;;;;;;;;9987684;29;20067;-71
2023/01/10 14:25:19;;;;;;;23.75;21.35;;;;;;;;;;9986466;29;20100;-71
2023/01/10 14:30:26;;;;;;;26.40;21.20;;;;;;;;;;9974928;29;20562;-71
2023/01/10 14:35:23;;;;;;;26.70;22.20;;;;;;;;;;9980508;29;20498;-71
2023/01/10 14:40:22;;;;;;;24.23;20.17;;;;;;;;;;9982480;29;20052;-71
2023/01/10 14:45:24;;;;;;;26.50;20.00;;;;;;;;;;9977078;29;20142;-71
2023/01/10 14:50:26;;;;;;;26.95;20.23;;;;;;;;;;9980013;29;20052;-71
2023/01/10 14:55:23;;;;;;;22.57;20.07;;;;;;;;;;9975872;29;20471;-71
2023/01/10 15:00:23;;;;;;;32.15;21.52;;;;;;;;;;9975022;29;20135;-71
2023/01/10 15:05:24;;;;;;;22.10;19.80;;;;;;;;;;9987695;29;20195;-71
2023/01/10 15:10:21;;;;;;;24.17;19.75;;;;;;;;;;9971857;29;20562;-71
2023/01/10 15:15:18;;;;;;;32.55;21.77;;;;;;;;;;9983655;29;20451;-71
2023/01/10 15:20:15;;;;;;;24.75;19.88;;;;;;;;;;9984669;29;20052;-71
2023/01/10 15:25:25;;;;;;;28.85;22.13;;;;;;;;;;9971903;29;20048;-70
2023/01/10 15:30:26;;;;;;;27.88;21.40;;;;;;;;;;9980046;29;20055;-70
2023/01/10 15:35:25;;;;;;;26.88;22.20;;;;;;;;;;9988029;29;20044;-71
2023/01/10 15:40:33;;;;;;;26.60;22.20;;;;;;;;;;9988861;29;20410;-71
2023/01/10 15:45:36;;;;;;;25.65;23.15;;;;;;;;;;9988694;29;20135;-71
2023/01/10 15:50:37;;;;;;;29.08;22.85;;;;;;;;;;9975631;29;20048;-71
2023/01/10 15:55:45;;;;;;;30.33;22.40;;;;;;;;;;9995067;29;20048;-70
2023/01/10 16:00:42;;;;;;;28.73;23.80;;;;;;;;;;9987860;29;20055;-71
2023/01/10 16:05:38;;;;;;;27.10;23.02;;;;;;;;;;9983824;29;20044;-70
2023/01/10 16:10:36;;;;;;;25.02;21.90;;;;;;;;;;9972628;29;20072;-70
2023/01/10 16:15:42;;;;;;;25.55;22.73;;;;;;;;;;9987103;29;20091;-71
2023/01/10 16:20:40;;;;;;;24.83;22.10;;;;;;;;;;9992342;29;20040;-70
2023/01/10 16:25:38;;;;;;;30.83;22.20;;;;;;;;;;9988621;29;20044;-69
2023/01/10 16:30:34;;;;;;;27.30;22.85;;;;;;;;;;9992137;29;20450;-70
2023/01/10 16:35:30;;;;;;;30.77;23.95;;;;;;;;;;9981955;29;20052;-71
2023/01/10 16:40:31;;;;;;;31.85;24.58;;;;;;;;;;9986040;29;20060;-70
2023/01/10 16:45:30;;;;;;;34.63;25.02;;;;;;;;;;9977066;29;20571;-71
2023/01/10 16:50:27;;;;;;;39.08;25.30;;;;;;;;;;9981493;29;20725;-70
2023/01/10 16:55:53;;;;;;;34.28;25.23;;;;;;;;;;9983685;29;20110;-71
2023/01/10 17:00:50;;;;;;;29.58;25.55;;;;;;;;;;9977739;29;20142;-70
2023/01/10 17:05:46;;;;;;;31.63;25.25;;;;;;;;;;9984605;29;20041;-70
2023/01/10 17:10:44;;;;;;;33.58;25.45;;;;;;;;;;9989450;29;20415;-71
2023/01/10 17:15:40;;;;;;;37.10;26.88;;;;;;;;;;9982083;29;20040;-70
2023/01/10 17:20:37;;;;;;;28.02;24.83;;;;;;;;;;9973584;29;20126;-71
2023/01/10 17:25:33;;;;;;;27.48;24.38;;;;;;;;;;9974406;29;20127;-70
2023/01/10 17:30:29;;;;;;;37.72;25.25;;;;;;;;;;9981470;29;20123;-71
2023/01/10 17:35:27;;;;;;;31.55;25.75;;;;;;;;;;9990884;29;20524;-70
2023/01/10 17:40:23;;;;;;;30.40;26.55;;;;;;;;;;9980837;29;20048;-71
2023/01/10 17:45:19;;;;;;;33.58;27.23;;;;;;;;;;9985598;29;20447;-70
2023/01/10 17:50:16;;;;;;;29.45;25.50;;;;;;;;;;9974255;29;20055;-71
2023/01/10 17:55:12;;;;;;;29.67;26.33;;;;;;;;;;9986145;29;20044;-70
2023/01/10 18:00:09;;;;;;;28.60;25.35;;;;;;;;;;9977203;29;20060;-70
2023/01/10 18:05:05;;;;;;;31.80;25.60;;;;;;;;;;9976017;29;20054;-70
2023/01/10 18:10:01;;;;;;;27.02;24.27;;;;;;;;;;9980851;29;20442;-70
2023/01/10 18:14:58;;;;;;;31.38;23.73;;;;;;;;;;9992475;29;20506;-72
2023/01/10 18:19:54;;;;;;;28.00;23.77;;;;;;;;;;9980090;29;20130;-71
2023/01/10 18:24:51;;;;;;;25.52;22.40;;;;;;;;;;9980108;29;20140;-71
2023/01/10 18:29:50;;;;;;;26.65;23.27;;;;;;;;;;9987951;29;20146;-71
2023/01/10 18:34:47;;;;;;;24.73;20.48;;;;;;;;;;9982754;29;20087;-70
2023/01/10 18:39:43;;;;;;;25.95;22.90;;;;;;;;;;9988996;29;20059;-71
2023/01/10 18:44:40;;;;;;;23.98;20.27;;;;;;;;;;9979987;29;20048;-71
2023/01/10 18:49:36;;;;;;;22.40;18.98;;;;;;;;;;9980108;29;20055;-71
2023/01/10 18:54:32;;;;;;;21.92;18.38;;;;;;;;;;9990432;29;20048;-70
2023/01/10 18:59:28;;;;;;;23.85;17.40;;;;;;;;;;9987429;29;20139;-70
2023/01/10 19:04:25;;;;;;;30.48;17.60;;;;;;;;;;9974999;29;20056;-70
2023/01/10 19:09:21;;;;;;;23.17;17.25;;;;;;;;;;9985460;29;20082;-70
2023/01/10 19:14:18;;;;;;;26.77;16.02;;;;;;;;;;9989460;29;20052;-70
2023/01/10 19:19:14;;;;;;;24.10;14.93;;;;;;;;;;9981867;29;20067;-70
2023/01/10 19:24:22;;;;;;;27.20;16.52;;;;;;;;;;9982268;29;20513;-70
2023/01/10 19:29:19;;;;;;;21.27;16.65;;;;;;;;;;9998619;29;20071;-70
2023/01/10 19:34:16;;;;;;;20.08;15.85;;;;;;;;;;9996252;29;20071;-70
2023/01/10 19:39:13;;;;;;;22.52;14.90;;;;;;;;;;9997556;29;20076;-70
2023/01/10 19:44:18;;;;;;;23.17;13.45;;;;;;;;;;9993367;29;20067;-71
2023/01/10 19:49:16;;;;;;;17.42;13.73;;;;;;;;;;9987108;29;20134;-70
2023/01/10 19:54:12;;;;;;;19.42;13.75;;;;;;;;;;9990826;29;20048;-71
2023/01/10 19:59:09;;;;;;;21.38;12.85;;;;;;;;;;9985533;29;20056;-70
2023/01/10 20:04:05;;;;;;;17.35;12.32;;;;;;;;;;9994698;29;20325;-70
2023/01/10 20:09:02;;;;;;;20.42;12.30;;;;;;;;;;9983702;29;20052;-71
2023/01/10 20:13:58;;;;;;;17.00;11.75;;;;;;;;;;9973447;29;20051;-70
2023/01/10 20:18:54;;;;;;;18.00;12.93;;;;;;;;;;9974874;29;20450;-69
2023/01/10 20:23:51;;;;;;;19.13;13.20;;;;;;;;;;9975155;29;20044;-67
2023/01/10 20:28:49;;;;;;;22.02;15.07;;;;;;;;;;9983481;29;20427;-71
2023/01/10 20:33:45;;;;;;;18.17;16.45;;;;;;;;;;9984018;29;20051;-70
2023/01/10 20:38:42;;;;;;;19.77;17.73;;;;;;;;;;9988611;29;20151;-70
2023/01/10 20:43:39;;;;;;;21.02;18.63;;;;;;;;;;9990290;29;20080;-70
2023/01/10 20:48:35;;;;;;;24.55;22.00;;;;;;;;;;9986716;29;20079;-71
2023/01/10 20:53:32;;;;;;;26.80;23.80;;;;;;;;;;9990526;29;20125;-68
2023/01/10 20:58:28;;;;;;;27.13;25.00;;;;;;;;;;9985004;29;20044;-68
2023/01/10 21:03:24;;;;;;;31.17;28.15;;;;;;;;;;9988064;29;20079;-70
2023/01/10 21:08:21;;;;;;;33.42;30.83;;;;;;;;;;9968106;29;20049;-68
2023/01/10 21:13:17;;;;;;;34.65;31.98;;;;;;;;;;9978658;29;20425;-69
2023/01/10 21:18:14;;;;;;;35.83;32.55;;;;;;;;;;9986044;29;20451;-69
2023/01/10 21:23:12;;;;;;;36.92;33.85;;;;;;;;;;9983015;29;20103;-69
2023/01/10 21:28:08;;;;;;;38.67;35.42;;;;;;;;;;9971002;29;20123;-69
2023/01/10 21:33:05;;;;;;;37.67;34.83;;;;;;;;;;9978680;29;20055;-69
2023/01/10 21:38:02;;;;;;;41.00;38.17;;;;;;;;;;9986928;29;20075;-69
2023/01/10 21:42:58;;;;;;;41.90;38.97;;;;;;;;;;9987780;29;20059;-69
2023/01/10 21:47:55;;;;;;;43.28;40.30;;;;;;;;;;9988673;29;20493;-69
2023/01/10 21:52:51;;;;;;;42.88;39.75;;;;;;;;;;9977617;29;20044;-69
2023/01/10 21:57:47;;;;;;;42.60;39.53;;;;;;;;;;9985150;29;20094;-69
2023/01/10 22:02:44;;;;;;;45.55;41.58;;;;;;;;;;9985727;29;20044;-69
2023/01/10 22:07:40;;;;;;;42.85;39.58;;;;;;;;;;9993487;29;20052;-69
2023/01/10 22:12:37;;;;;;;45.85;42.70;;;;;;;;;;9991197;29;20472;-70
2023/01/10 22:17:33;;;;;;;47.67;44.00;;;;;;;;;;9991367;29;20624;-70
2023/01/10 22:22:29;;;;;;;45.13;41.78;;;;;;;;;;9979194;29;20277;-70
2023/01/10 22:27:27;;;;;;;50.47;45.47;;;;;;;;;;9977531;29;20548;-70
2023/01/10 22:32:23;;;;;;;46.63;43.15;;;;;;;;;;9989335;29;20048;-71
2023/01/10 22:37:20;;;;;;;47.53;44.05;;;;;;;;;;9977792;29;20494;-69
2023/01/10 22:42:16;;;;;;;48.67;45.15;;;;;;;;;;9992133;29;20054;-69
2023/01/10 22:47:12;;;;;;;51.13;46.83;;;;;;;;;;9979007;29;20044;-69
2023/01/10 22:52:10;;;;;;;50.58;46.20;;;;;;;;;;9980513;29;20084;-69
2023/01/10 22:57:06;;;;;;;53.60;49.83;;;;;;;;;;9989287;29;20689;-70
2023/01/10 23:02:02;;;;;;;52.00;47.85;;;;;;;;;;9985444;29;20048;-70
2023/01/10 23:06:59;;;;;;;52.90;48.83;;;;;;;;;;9985122;29;20050;-69
2023/01/10 23:11:55;;;;;;;51.10;46.92;;;;;;;;;;9967147;29;20044;-70
2023/01/10 23:16:51;;;;;;;49.63;45.72;;;;;;;;;;9978171;29;20048;-69
2023/01/10 23:21:50;;;;;;;52.70;48.60;;;;;;;;;;9978366;29;20131;-71
2023/01/10 23:26:47;;;;;;;48.80;45.05;;;;;;;;;;9972026;29;20044;-70
2023/01/10 23:31:48;;;;;;;51.72;47.92;;;;;;;;;;9982909;29;20135;-71
2023/01/10 23:36:44;;;;;;;51.13;47.33;;;;;;;;;;9982385;29;20046;-72
2023/01/10 23:41:40;;;;;;;52.47;48.85;;;;;;;;;;9987355;29;20048;-69
2023/01/10 23:46:37;;;;;;;50.92;47.25;;;;;;;;;;9984275;29;20574;-68
2023/01/10 23:51:33;;;;;;;51.80;48.25;;;;;;;;;;9978933;29;20056;-68
2023/01/10 23:56:29;;;;;;;52.58;48.75;;;;;;;;;;9993257;29;20055;-69
